Terminal Aerodrome Forecast
Issued by NWS Brownsville, TX

Home | Current Version | Previous Version | Text Only | Print | Product List | Glossary On
Versions: 1 2 3 4 5 6 7 8 9 10 11 12 13 14 15 16 17 18 19 20 21 22 23 24
000
FTUS44 KBRO 212300
TAFBRO
TAF
KBRO 212320Z 2200/2224 04006KT P6SM OVC015
     FM220300 VRB03KT P6SM OVC025
     FM220500 16003KT 6SM BR OVC015
     FM221500 19009KT P6SM SCT015=

USA.gov is the U.S. government's official web portal to all federal, state and local government web resources and services.